Time;durP1;ratioP1;P1;durP2;ratioP2;P2;SDS_P1;SDS_P2;PMS_P1;PMS_P2;Temp;Humidity;BMP_temperature;BMP_pressure;BME280_temperature;BME280_humidity;BME280_pressure;Samples;Min_cycle;Max_cycle;Signal;HPM_P1;HPM_P2
2021/09/05 04:00:27;;;;;;;15.80;13.90;;;15.60;99.90;;;;;;5940283;23;20475;-65
2021/09/05 04:02:54;;;;;;;15.80;14.40;;;15.60;99.90;;;;;;4997163;28;20457;-64
2021/09/05 04:05:21;;;;;;;15.27;13.77;;;15.60;99.90;;;;;;4995897;28;20555;-65
2021/09/05 04:08:01;;;;;;;15.60;14.20;;;15.60;99.90;;;;;;4996107;28;20460;-65
2021/09/05 04:10:28;;;;;;;15.50;14.00;;;15.60;99.90;;;;;;4996600;28;20481;-64
2021/09/05 04:12:55;;;;;;;17.40;15.47;;;15.60;99.90;;;;;;4995395;28;20826;-65
2021/09/05 04:15:21;;;;;;;14.50;13.00;;;15.50;99.90;;;;;;4995721;28;20454;-64
2021/09/05 04:17:49;;;;;;;15.17;13.77;;;15.50;99.90;;;;;;4995638;28;20469;-65
2021/09/05 04:20:16;;;;;;;13.17;12.07;;;15.50;99.90;;;;;;4995098;28;20442;-64
2021/09/05 04:22:44;;;;;;;13.77;12.47;;;15.50;99.90;;;;;;4995452;28;20454;-65
2021/09/05 04:25:12;;;;;;;14.97;13.37;;;15.50;99.90;;;;;;4995340;28;20527;-65
2021/09/05 04:27:39;;;;;;;13.37;12.07;;;15.40;99.90;;;;;;4994762;28;20457;-65
2021/09/05 04:30:07;;;;;;;13.23;12.13;;;15.30;99.90;;;;;;4994358;28;20838;-65
2021/09/05 04:32:34;;;;;;;13.30;12.10;;;15.30;99.90;;;;;;4995293;28;20945;-65
2021/09/05 04:35:02;;;;;;;14.10;12.80;;;15.30;99.90;;;;;;4995345;28;20454;-65
2021/09/05 04:37:29;;;;;;;13.07;11.87;;;15.30;99.90;;;;;;4995232;28;20454;-65
2021/09/05 04:39:55;;;;;;;12.90;11.70;;;15.30;99.90;;;;;;4995105;28;20490;-65
2021/09/05 04:42:22;;;;;;;12.97;11.67;;;15.30;99.90;;;;;;4995066;28;20875;-65
2021/09/05 04:44:52;;;;;;;13.67;12.20;;;15.30;99.90;;;;;;4995469;28;20441;-65
2021/09/05 04:47:19;;;;;;;12.27;11.10;;;15.30;99.90;;;;;;4995291;28;20445;-63
2021/09/05 04:49:46;;;;;;;13.63;12.20;;;15.30;99.90;;;;;;4995114;28;20453;-65
2021/09/05 04:52:14;;;;;;;12.80;11.70;;;15.30;99.90;;;;;;4995265;28;20469;-65
2021/09/05 04:54:41;;;;;;;12.00;10.90;;;15.30;99.90;;;;;;4994756;28;20516;-65
2021/09/05 04:57:07;;;;;;;12.33;11.17;;;15.30;99.90;;;;;;4995156;28;20450;-65
2021/09/05 04:59:34;;;;;;;14.37;11.77;;;15.20;99.90;;;;;;4995098;28;20460;-65
2021/09/05 05:02:01;;;;;;;16.27;10.80;;;15.20;99.90;;;;;;4994768;28;20485;-65
2021/09/05 05:04:27;;;;;;;11.73;10.70;;;15.20;99.90;;;;;;4995022;28;20797;-65
2021/09/05 05:06:54;;;;;;;14.97;10.10;;;15.10;99.90;;;;;;4995131;28;20477;-65
2021/09/05 05:09:22;;;;;;;12.00;10.90;;;15.20;99.90;;;;;;4995261;28;20461;-65
2021/09/05 05:11:49;;;;;;;11.90;10.90;;;15.10;99.90;;;;;;4995209;28;20500;-65
2021/09/05 05:14:16;;;;;;;11.50;10.50;;;15.10;99.90;;;;;;4995745;28;20453;-65
2021/09/05 05:16:42;;;;;;;11.17;10.17;;;15.10;99.90;;;;;;4995418;28;20457;-63
2021/09/05 05:19:09;;;;;;;12.40;11.20;;;15.10;99.90;;;;;;4995086;28;20457;-64
2021/09/05 05:21:36;;;;;;;11.37;10.37;;;15.10;99.90;;;;;;4994372;28;20992;-63
2021/09/05 05:24:02;;;;;;;11.73;10.70;;;15.10;99.90;;;;;;4994977;28;20959;-64
2021/09/05 05:26:30;;;;;;;11.67;10.67;;;15.10;99.90;;;;;;4994857;28;20473;-63
2021/09/05 05:28:57;;;;;;;12.90;11.30;;;15.00;99.90;;;;;;4994729;28;20458;-63
2021/09/05 05:31:24;;;;;;;11.90;10.80;;;15.10;99.90;;;;;;4994183;28;20580;-64
2021/09/05 05:33:51;;;;;;;13.07;11.87;;;15.10;99.90;;;;;;4994717;28;20461;-63
2021/09/05 05:36:17;;;;;;;12.07;10.90;;;15.20;99.90;;;;;;4994725;28;20457;-63
2021/09/05 05:38:44;;;;;;;18.60;11.43;;;15.30;99.90;;;;;;4994643;28;20523;-63
2021/09/05 05:41:13;;;;;;;14.23;13.03;;;15.40;99.90;;;;;;4994861;28;20481;-64
2021/09/05 05:43:41;;;;;;;12.17;10.97;;;15.50;99.90;;;;;;4998208;28;20454;-63
2021/09/05 05:46:07;;;;;;;12.53;11.43;;;15.60;99.90;;;;;;4998876;28;20473;-64
2021/09/05 05:48:34;;;;;;;12.83;11.73;;;15.70;99.90;;;;;;4998220;28;20529;-63
2021/09/05 05:51:01;;;;;;;14.10;12.90;;;15.70;99.90;;;;;;4998412;28;20474;-64
2021/09/05 05:53:28;;;;;;;12.80;11.50;;;15.90;99.90;;;;;;4997930;28;20457;-63
2021/09/05 05:55:54;;;;;;;13.70;12.50;;;16.10;99.90;;;;;;4998112;28;20460;-63
2021/09/05 05:58:21;;;;;;;12.83;11.70;;;16.50;99.90;;;;;;4998059;28;20589;-64
2021/09/05 06:00:49;;;;;;;12.47;11.47;;;16.70;99.90;;;;;;4997808;28;20489;-63
2021/09/05 06:03:16;;;;;;;16.90;11.57;;;17.00;99.90;;;;;;4998038;28;20461;-63
2021/09/05 06:05:42;;;;;;;13.07;11.83;;;17.40;99.90;;;;;;4998006;28;20480;-63
2021/09/05 06:08:09;;;;;;;11.73;10.73;;;17.70;99.90;;;;;;4998651;28;20454;-63
2021/09/05 06:10:36;;;;;;;14.57;11.17;;;17.90;99.90;;;;;;4997674;28;20478;-63
2021/09/05 06:13:02;;;;;;;13.20;12.00;;;18.30;99.90;;;;;;4997892;28;20450;-65
2021/09/05 06:15:29;;;;;;;11.77;10.77;;;18.60;99.90;;;;;;4998041;28;20454;-63
2021/09/05 06:17:57;;;;;;;11.40;10.50;;;19.00;99.90;;;;;;4998768;28;20461;-63
2021/09/05 06:20:24;;;;;;;11.80;10.80;;;19.30;99.90;;;;;;4998048;28;20936;-63
2021/09/05 06:22:50;;;;;;;12.13;11.03;;;19.60;99.90;;;;;;4997832;28;20462;-63
2021/09/05 06:25:17;;;;;;;11.80;10.60;;;20.10;99.90;;;;;;4998114;28;20453;-63
2021/09/05 06:27:44;;;;;;;13.03;11.83;;;20.30;99.90;;;;;;4998190;28;20477;-63
2021/09/05 06:30:12;;;;;;;11.00;10.10;;;20.40;99.90;;;;;;4997308;28;20520;-64
2021/09/05 06:32:39;;;;;;;13.00;11.80;;;20.60;99.90;;;;;;4997742;28;20461;-63
2021/09/05 06:35:08;;;;;;;12.50;11.40;;;20.90;99.90;;;;;;4999106;28;20461;-63
2021/09/05 06:37:35;;;;;;;13.13;12.00;;;21.00;99.90;;;;;;4999158;28;20449;-65
2021/09/05 06:40:02;;;;;;;12.10;11.00;;;21.30;99.90;;;;;;4999436;28;20463;-64
2021/09/05 06:42:29;;;;;;;12.23;10.97;;;21.50;99.90;;;;;;4996881;28;20474;-64
2021/09/05 06:44:55;;;;;;;11.60;10.40;;;21.90;99.90;;;;;;4996937;28;20464;-64
2021/09/05 06:47:22;;;;;;;12.23;11.13;;;22.20;99.90;;;;;;4997675;28;20884;-64
2021/09/05 06:49:48;;;;;;;12.43;11.30;;;22.20;99.90;;;;;;4997346;28;20465;-66
2021/09/05 06:52:17;;;;;;;11.60;10.60;;;22.40;99.90;;;;;;4997225;28;20477;-64
2021/09/05 06:54:43;;;;;;;10.57;9.57;;;22.70;99.90;;;;;;4996192;28;20463;-64
2021/09/05 06:57:10;;;;;;;15.43;10.47;;;23.00;99.90;;;;;;4996707;28;20453;-65
2021/09/05 06:59:37;;;;;;;11.13;10.13;;;23.40;99.90;;;;;;4996866;28;20480;-64
2021/09/05 07:02:04;;;;;;;12.43;11.20;;;23.40;99.90;;;;;;4996007;28;20504;-65
2021/09/05 07:04:31;;;;;;;10.87;9.97;;;23.50;99.90;;;;;;4996851;28;20810;-64
2021/09/05 07:06:58;;;;;;;11.80;10.80;;;23.90;99.90;;;;;;4998364;28;20839;-64
2021/09/05 07:09:26;;;;;;;10.30;9.50;;;24.10;99.90;;;;;;5000901;28;20461;-64
2021/09/05 07:11:52;;;;;;;11.03;10.00;;;24.30;99.90;;;;;;4997790;28;20476;-64
2021/09/05 07:14:19;;;;;;;10.30;9.50;;;24.70;99.90;;;;;;4996687;28;20465;-64
2021/09/05 07:16:46;;;;;;;10.47;9.43;;;25.30;99.90;;;;;;4997236;28;20453;-64
2021/09/05 07:19:12;;;;;;;10.60;9.70;;;25.90;99.90;;;;;;4996530;28;20457;-65
2021/09/05 07:21:39;;;;;;;11.43;10.43;;;26.30;99.90;;;;;;4996319;28;20474;-64
2021/09/05 07:24:06;;;;;;;10.90;10.10;;;26.70;99.90;;;;;;4996381;28;20458;-64
2021/09/05 07:26:34;;;;;;;10.87;10.07;;;27.10;99.90;;;;;;4996127;28;20835;-63
2021/09/05 07:29:01;;;;;;;10.70;9.80;;;27.50;98.50;;;;;;4996132;28;20461;-64
2021/09/05 07:31:28;;;;;;;10.23;9.43;;;27.50;97.50;;;;;;4995999;28;20833;-63
2021/09/05 07:33:54;;;;;;;10.50;9.47;;;27.50;97.10;;;;;;4996160;28;20465;-63
2021/09/05 07:36:21;;;;;;;10.13;9.43;;;27.90;95.70;;;;;;4996065;28;20449;-64
2021/09/05 07:38:48;;;;;;;9.87;9.07;;;28.10;95.40;;;;;;4995709;28;20964;-63
2021/09/05 07:41:14;;;;;;;9.83;8.83;;;28.30;93.80;;;;;;4996113;28;20477;-63
2021/09/05 07:43:42;;;;;;;9.80;9.10;;;28.60;93.60;;;;;;4996073;28;20469;-63
2021/09/05 07:46:09;;;;;;;10.07;9.40;;;28.70;92.60;;;;;;4995646;28;20960;-63
2021/09/05 07:48:36;;;;;;;10.53;9.73;;;28.60;91.70;;;;;;4995938;28;20458;-63
2021/09/05 07:51:03;;;;;;;9.73;8.93;;;28.60;91.70;;;;;;4995630;28;20565;-63
2021/09/05 07:53:30;;;;;;;12.60;8.83;;;28.70;91.80;;;;;;4995042;28;20457;-64
2021/09/05 07:55:56;;;;;;;11.43;10.53;;;29.30;90.80;;;;;;4995777;28;20457;-63
2021/09/05 07:58:25;;;;;;;9.90;9.10;;;29.60;90.00;;;;;;4996006;28;20458;-64
2021/09/05 08:00:53;;;;;;;9.67;8.87;;;29.90;90.30;;;;;;4995632;28;20493;-64
2021/09/05 08:03:20;;;;;;;10.03;9.10;;;30.20;87.60;;;;;;4995598;28;20999;-64
2021/09/05 08:05:47;;;;;;;10.30;9.50;;;30.70;88.10;;;;;;4997353;28;20457;-64
2021/09/05 08:08:13;;;;;;;9.70;9.00;;;30.90;82.60;;;;;;4997019;28;20504;-65
2021/09/05 08:10:40;;;;;;;9.30;8.53;;;31.20;81.50;;;;;;4995719;28;20558;-64
2021/09/05 08:13:07;;;;;;;9.50;8.80;;;31.20;82.10;;;;;;4996219;28;20454;-64
2021/09/05 08:15:33;;;;;;;9.37;8.67;;;31.50;80.90;;;;;;4995557;28;20454;-64
2021/09/05 08:18:01;;;;;;;9.50;8.70;;;31.50;80.00;;;;;;4995653;28;20834;-65
2021/09/05 08:20:28;;;;;;;8.97;8.30;;;32.20;77.60;;;;;;4995440;28;20456;-65
2021/09/05 08:22:55;;;;;;;10.07;9.37;;;32.40;77.00;;;;;;4995615;28;20465;-65
2021/09/05 08:25:22;;;;;;;10.33;9.43;;;32.00;73.80;;;;;;4995550;28;20454;-64
2021/09/05 08:27:48;;;;;;;9.10;8.50;;;32.00;75.00;;;;;;4995510;28;20481;-64
2021/09/05 08:30:15;;;;;;;9.93;9.13;;;32.20;76.60;;;;;;4995394;28;20456;-65
2021/09/05 08:32:42;;;;;;;10.17;9.40;;;32.60;74.80;;;;;;4995291;28;20454;-65
2021/09/05 08:35:10;;;;;;;8.20;7.60;;;32.80;72.20;;;;;;4995607;28;20453;-64
2021/09/05 08:37:37;;;;;;;9.70;9.00;;;32.80;72.60;;;;;;4996820;28;20449;-64
2021/09/05 08:40:05;;;;;;;9.30;8.60;;;33.50;71.10;;;;;;4996314;28;20460;-65
2021/09/05 08:42:33;;;;;;;9.17;8.43;;;33.70;71.30;;;;;;4995230;28;20477;-64
2021/09/05 08:45:00;;;;;;;9.70;8.70;;;34.20;67.70;;;;;;4994801;28;20962;-64
2021/09/05 08:47:32;;;;;;;9.07;8.27;;;34.90;65.40;;;;;;4995213;28;20503;-65
2021/09/05 08:50:01;;;;;;;8.50;7.70;;;34.70;65.30;;;;;;4995393;28;20985;-64
2021/09/05 08:52:29;;;;;;;9.57;8.63;;;34.90;64.20;;;;;;4995468;28;20474;-64
2021/09/05 08:54:56;;;;;;;8.77;8.17;;;35.00;63.10;;;;;;4995431;28;20816;-63
2021/09/05 08:57:23;;;;;;;9.43;8.77;;;34.50;62.50;;;;;;4994976;28;20481;-64
2021/09/05 08:59:49;;;;;;;7.47;6.97;;;34.90;61.50;;;;;;4995153;28;20454;-65
2021/09/05 09:02:16;;;;;;;10.80;8.10;;;35.70;60.00;;;;;;4994420;28;20478;-65
2021/09/05 09:04:44;;;;;;;8.20;7.53;;;35.70;62.10;;;;;;4994566;28;20491;-65
2021/09/05 09:07:12;;;;;;;8.30;7.63;;;35.60;58.20;;;;;;4995632;28;20486;-65
2021/09/05 09:09:55;;;;;;;8.77;8.03;;;35.80;57.90;;;;;;4994658;28;20583;-65
2021/09/05 09:12:36;;;;;;;7.47;6.93;;;35.80;58.60;;;;;;4994859;28;20492;-65
2021/09/05 09:15:03;;;;;;;8.40;7.70;;;36.20;58.50;;;;;;4995052;28;20441;-64
2021/09/05 09:17:38;;;;;;;8.57;7.60;;;36.50;57.70;;;;;;4997411;28;20481;-65
2021/09/05 09:20:06;;;;;;;7.83;7.23;;;36.70;56.10;;;;;;4998797;28;20441;-65
2021/09/05 09:22:33;;;;;;;7.23;6.73;;;36.30;60.10;;;;;;4998753;28;20527;-66
2021/09/05 09:25:01;;;;;;;7.73;7.10;;;36.10;57.80;;;;;;4998740;28;20458;-66
2021/09/05 09:27:27;;;;;;;9.30;8.53;;;36.30;59.20;;;;;;4998454;28;20488;-66
2021/09/05 09:29:56;;;;;;;7.83;7.27;;;36.10;55.60;;;;;;4998754;28;20458;-66
2021/09/05 09:32:23;;;;;;;7.73;7.10;;;36.20;56.30;;;;;;4998155;28;20483;-65
2021/09/05 09:34:53;;;;;;;7.10;6.60;;;36.40;55.70;;;;;;4998474;28;20462;-65
2021/09/05 09:37:21;;;;;;;6.80;6.30;;;36.60;55.20;;;;;;4998192;28;20940;-64
2021/09/05 09:39:50;;;;;;;7.57;7.07;;;36.10;56.70;;;;;;4998380;28;20463;-64
2021/09/05 09:42:32;;;;;;;6.90;6.40;;;36.50;56.70;;;;;;4998086;28;20485;-64
2021/09/05 09:44:58;;;;;;;6.20;5.80;;;36.40;56.10;;;;;;4998251;28;20458;-65
2021/09/05 09:47:25;;;;;;;6.60;6.03;;;37.10;54.60;;;;;;4997772;28;21014;-65
2021/09/05 09:49:52;;;;;;;6.07;5.67;;;37.50;57.00;;;;;;4998108;28;20458;-66
2021/09/05 09:52:19;;;;;;;6.50;6.00;;;37.10;55.50;;;;;;4997416;28;20489;-65
2021/09/05 09:54:47;;;;;;;6.50;6.10;;;37.10;57.20;;;;;;4997385;28;20470;-65
2021/09/05 09:57:14;;;;;;;7.03;6.63;;;37.00;57.20;;;;;;4997243;28;20489;-65
2021/09/05 09:59:42;;;;;;;6.47;6.00;;;36.70;54.60;;;;;;4997226;28;20821;-65
2021/09/05 10:02:17;;;;;;;6.77;6.30;;;36.60;57.50;;;;;;4997533;28;20492;-65
2021/09/05 10:04:46;;;;;;;5.67;5.30;;;37.00;52.10;;;;;;4997667;28;20479;-65
2021/09/05 10:07:13;;;;;;;6.30;5.80;;;37.00;53.90;;;;;;4996811;28;20488;-65
2021/09/05 10:09:41;;;;;;;6.63;6.23;;;37.20;56.50;;;;;;4997097;28;20813;-65
2021/09/05 10:12:09;;;;;;;5.97;5.63;;;37.30;51.70;;;;;;4996945;28;20484;-65
2021/09/05 10:14:37;;;;;;;6.30;5.90;;;37.20;51.70;;;;;;4997064;28;20460;-65
2021/09/05 10:17:07;;;;;;;7.10;6.13;;;37.50;53.90;;;;;;4996986;28;20507;-65
2021/09/05 10:19:36;;;;;;;6.63;6.13;;;36.90;51.30;;;;;;4997124;28;20461;-64
2021/09/05 10:22:04;;;;;;;5.90;5.50;;;36.80;51.00;;;;;;4996429;28;20482;-64
2021/09/05 10:24:42;;;;;;;5.43;5.13;;;36.30;52.20;;;;;;4996912;28;20452;-64
2021/09/05 10:27:09;;;;;;;5.20;4.80;;;36.80;52.80;;;;;;4996699;28;20472;-65
2021/09/05 10:29:36;;;;;;;6.47;5.97;;;37.10;52.90;;;;;;4995576;28;20462;-66
2021/09/05 10:32:05;;;;;;;5.93;5.53;;;37.20;54.90;;;;;;4996570;28;20483;-66
2021/09/05 10:34:34;;;;;;;5.43;5.03;;;36.40;53.90;;;;;;4996377;28;20970;-66
2021/09/05 10:37:07;;;;;;;5.70;5.40;;;36.80;57.50;;;;;;4996366;28;20945;-66
2021/09/05 10:39:34;;;;;;;6.23;5.73;;;36.80;54.10;;;;;;4996963;28;20470;-66
2021/09/05 10:42:00;;;;;;;6.27;5.77;;;36.90;56.90;;;;;;4997344;28;20557;-66
2021/09/05 10:44:28;;;;;;;5.37;5.07;;;36.30;52.00;;;;;;4996451;28;20456;-66
2021/09/05 10:46:56;;;;;;;5.50;5.20;;;36.40;50.90;;;;;;4996541;28;20510;-65
2021/09/05 10:52:43;;;;;;;5.57;5.27;;;36.80;51.30;;;;;;5092667;27;20538;-65
2021/09/05 10:55:10;;;;;;;4.87;4.60;;;37.80;47.70;;;;;;5091635;28;20459;-66
2021/09/05 10:57:40;;;;;;;5.03;4.73;;;37.60;48.20;;;;;;5091367;28;20819;-65
2021/09/05 11:00:08;;;;;;;5.60;5.30;;;37.20;51.70;;;;;;5091780;28;20496;-66
2021/09/05 11:03:08;;;;;;;5.67;5.37;;;36.20;51.00;;;;;;5091318;28;20541;-65
2021/09/05 11:05:35;;;;;;;5.90;5.50;;;36.70;51.00;;;;;;5091427;28;20493;-64
2021/09/05 11:08:24;;;;;;;5.93;5.53;;;37.10;50.30;;;;;;5090803;28;20461;-64
2021/09/05 11:10:52;;;;;;;6.17;5.80;;;36.70;51.70;;;;;;5090980;28;20571;-65
2021/09/05 11:13:46;;;;;;;6.43;5.93;;;36.20;52.40;;;;;;5091087;28;20457;-64
2021/09/05 11:16:15;;;;;;;6.63;5.70;;;35.50;50.40;;;;;;5091083;28;20434;-66
2021/09/05 11:18:43;;;;;;;7.20;5.60;;;34.80;56.00;;;;;;5090781;28;20507;-65
2021/09/05 11:21:23;;;;;;;5.73;5.33;;;34.70;55.60;;;;;;5090778;28;20919;-65
2021/09/05 11:23:51;;;;;;;6.57;5.97;;;34.50;53.20;;;;;;5090869;28;20429;-63
2021/09/05 11:26:18;;;;;;;5.43;4.93;;;34.20;52.60;;;;;;5090361;28;20912;-64
2021/09/05 11:28:45;;;;;;;6.40;5.90;;;33.40;56.70;;;;;;5090773;28;20931;-64
2021/09/05 11:31:12;;;;;;;6.23;5.73;;;32.70;56.50;;;;;;5090625;28;20526;-63
2021/09/05 11:33:38;;;;;;;6.07;5.67;;;32.10;57.70;;;;;;5090629;28;20989;-63
2021/09/05 11:36:10;;;;;;;6.90;6.40;;;32.10;57.50;;;;;;5090769;28;20453;-64
2021/09/05 11:38:38;;;;;;;6.07;5.67;;;32.00;60.10;;;;;;5090668;28;20893;-65
2021/09/05 11:41:06;;;;;;;5.80;5.40;;;31.70;57.80;;;;;;5090658;28;20580;-65
2021/09/05 11:43:34;;;;;;;5.90;5.40;;;31.80;58.20;;;;;;5090724;28;20499;-65
2021/09/05 11:46:11;;;;;;;4.70;4.40;;;31.20;59.90;;;;;;5091240;28;20795;-64
2021/09/05 11:48:38;;;;;;;5.73;5.23;;;31.30;54.60;;;;;;5090559;28;20440;-65
2021/09/05 11:51:05;;;;;;;6.10;5.47;;;31.40;54.30;;;;;;5090059;28;20481;-64
2021/09/05 11:53:32;;;;;;;5.33;4.93;;;31.40;53.70;;;;;;5090572;28;20808;-64
2021/09/05 11:55:59;;;;;;;5.43;5.10;;;31.20;54.50;;;;;;5090172;28;20449;-64
2021/09/05 11:58:27;;;;;;;5.63;4.17;;;31.50;61.20;;;;;;5090058;28;20454;-64
2021/09/05 12:00:55;;;;;;;5.27;4.90;;;31.30;56.80;;;;;;5090394;28;20473;-64
2021/09/05 12:03:24;;;;;;;5.37;4.97;;;31.60;59.20;;;;;;5077902;28;20478;-65
2021/09/05 12:05:54;;;;;;;5.10;4.73;;;31.10;55.40;;;;;;5076554;28;20453;-64
2021/09/05 12:08:21;;;;;;;5.37;5.07;;;30.90;59.90;;;;;;5076633;28;20482;-65
2021/09/05 12:11:01;;;;;;;4.87;4.47;;;31.20;59.00;;;;;;5076208;28;20482;-64
2021/09/05 12:13:45;;;;;;;5.20;4.70;;;31.30;59.60;;;;;;5076436;28;20434;-64
2021/09/05 12:16:20;;;;;;;5.33;5.03;;;31.50;56.40;;;;;;5076281;28;20838;-65
2021/09/05 12:19:02;;;;;;;5.57;5.17;;;31.70;54.90;;;;;;5076355;28;20438;-65
2021/09/05 12:21:30;;;;;;;5.43;5.00;;;31.60;53.80;;;;;;5076110;28;20470;-65
2021/09/05 12:23:57;;;;;;;4.80;4.50;;;31.50;54.70;;;;;;5075752;28;20941;-64
2021/09/05 12:26:23;;;;;;;4.90;4.53;;;31.60;53.60;;;;;;5076279;28;20461;-64
2021/09/05 12:29:00;;;;;;;5.07;4.77;;;31.70;55.20;;;;;;5076092;28;20461;-64
2021/09/05 12:31:40;;;;;;;5.40;5.00;;;31.90;54.60;;;;;;5075683;28;20976;-64
2021/09/05 12:34:07;;;;;;;6.03;5.63;;;32.00;52.60;;;;;;5075962;28;20457;-64
2021/09/05 12:36:34;;;;;;;5.90;5.40;;;31.80;51.90;;;;;;5076058;28;20457;-64
2021/09/05 12:39:01;;;;;;;5.23;4.93;;;31.50;52.80;;;;;;5076109;28;20454;-65
2021/09/05 12:41:29;;;;;;;7.53;5.70;;;31.10;57.30;;;;;;5075940;28;20658;-65
2021/09/05 12:43:59;;;;;;;5.37;4.97;;;31.30;57.30;;;;;;5076041;28;20457;-65
2021/09/05 12:46:38;;;;;;;5.20;4.90;;;31.40;53.50;;;;;;5075541;28;20438;-65
2021/09/05 12:49:11;;;;;;;5.23;4.83;;;31.20;53.90;;;;;;5076096;28;20442;-65
2021/09/05 12:51:48;;;;;;;5.60;5.20;;;31.20;54.30;;;;;;5075372;28;20844;-65
2021/09/05 12:54:15;;;;;;;5.50;5.20;;;31.10;54.30;;;;;;5075799;28;20465;-64
2021/09/05 12:56:41;;;;;;;4.97;4.67;;;31.10;55.40;;;;;;5075710;28;20454;-64
2021/09/05 12:59:09;;;;;;;4.90;4.60;;;31.10;56.10;;;;;;5075678;28;20457;-65
2021/09/05 13:01:36;;;;;;;4.70;4.40;;;31.40;56.70;;;;;;5076070;28;20470;-64
2021/09/05 13:04:04;;;;;;;5.53;5.13;;;31.30;54.60;;;;;;5075478;28;20461;-65
2021/09/05 13:06:31;;;;;;;7.83;5.10;;;31.20;54.10;;;;;;5075531;28;20454;-65
2021/09/05 13:08:58;;;;;;;5.13;4.83;;;31.50;56.70;;;;;;5075407;28;20930;-65
2021/09/05 13:11:27;;;;;;;5.50;5.20;;;31.40;55.30;;;;;;5075315;28;20504;-65
2021/09/05 13:13:54;;;;;;;5.77;5.37;;;31.30;58.00;;;;;;5074227;28;20814;-64
2021/09/05 13:16:23;;;;;;;5.93;5.50;;;31.40;55.50;;;;;;5075435;28;20458;-63
2021/09/05 13:18:50;;;;;;;5.10;4.80;;;31.20;53.30;;;;;;5075524;28;20507;-64
2021/09/05 13:21:19;;;;;;;6.33;5.57;;;31.10;52.80;;;;;;5075434;28;20481;-64
2021/09/05 13:23:46;;;;;;;5.93;5.40;;;30.80;52.90;;;;;;5075513;28;20454;-66
2021/09/05 13:26:15;;;;;;;4.27;4.07;;;31.00;54.10;;;;;;5075795;28;20449;-65
2021/09/05 13:28:42;;;;;;;5.33;4.93;;;31.20;54.10;;;;;;5075276;28;20461;-65
2021/09/05 13:31:11;;;;;;;5.07;4.77;;;31.40;55.80;;;;;;5081126;28;20512;-65
2021/09/05 13:33:39;;;;;;;6.10;5.60;;;31.50;54.70;;;;;;5084426;28;20445;-65
2021/09/05 13:36:07;;;;;;;5.23;4.87;;;31.50;54.30;;;;;;5084428;28;20473;-65
2021/09/05 13:38:39;;;;;;;6.47;5.30;;;31.50;56.30;;;;;;5082354;28;20963;-65
2021/09/05 13:41:06;;;;;;;4.80;4.50;;;31.60;56.10;;;;;;5076570;28;20470;-65
2021/09/05 13:43:33;;;;;;;4.90;4.60;;;31.70;52.30;;;;;;5074788;28;20459;-65
2021/09/05 13:46:00;;;;;;;4.50;4.20;;;31.50;54.40;;;;;;5074760;28;20450;-66
2021/09/05 13:48:26;;;;;;;4.87;4.57;;;31.60;50.90;;;;;;5074387;28;20933;-65
2021/09/05 13:50:54;;;;;;;4.80;4.50;;;31.20;52.60;;;;;;5073871;28;20514;-65
2021/09/05 13:53:21;;;;;;;4.67;4.27;;;31.30;53.40;;;;;;5074588;28;20864;-65
2021/09/05 13:55:48;;;;;;;5.40;4.90;;;31.40;53.60;;;;;;5074558;28;20457;-65
2021/09/05 13:58:14;;;;;;;4.90;4.60;;;31.00;53.00;;;;;;5074478;28;20457;-65
2021/09/05 14:00:41;;;;;;;4.73;4.33;;;31.00;52.80;;;;;;5074334;28;20474;-66
2021/09/05 14:03:08;;;;;;;4.37;4.00;;;31.00;53.70;;;;;;5074030;28;20937;-65
2021/09/05 14:05:35;;;;;;;5.27;4.97;;;31.10;53.80;;;;;;5074391;28;20457;-65
2021/09/05 14:08:03;;;;;;;5.00;4.70;;;31.10;54.40;;;;;;5074181;28;20454;-65
2021/09/05 14:10:29;;;;;;;4.50;4.20;;;31.10;54.40;;;;;;5074292;28;20461;-65
2021/09/05 14:12:56;;;;;;;4.83;4.53;;;31.00;53.30;;;;;;5073968;28;20478;-65
2021/09/05 14:15:23;;;;;;;4.97;4.67;;;31.10;52.50;;;;;;5075635;28;20859;-65
2021/09/05 14:17:49;;;;;;;4.87;4.57;;;31.00;53.90;;;;;;5074292;28;20473;-65
2021/09/05 14:20:16;;;;;;;5.53;5.00;;;31.00;53.20;;;;;;5074036;28;20503;-65
2021/09/05 14:22:43;;;;;;;4.83;4.50;;;31.10;56.40;;;;;;5074170;28;20446;-65
2021/09/05 14:25:12;;;;;;;4.57;4.37;;;31.20;54.20;;;;;;5073719;28;20473;-65
2021/09/05 14:27:43;;;;;;;5.07;4.63;;;31.20;53.70;;;;;;5074104;28;20457;-65
2021/09/05 14:30:14;;;;;;;5.40;4.90;;;31.10;55.60;;;;;;5074136;28;20466;-65
2021/09/05 14:32:47;;;;;;;4.53;4.23;;;31.20;51.70;;;;;;5073792;28;20462;-65
2021/09/05 14:49:00;;;;;;;5.07;4.67;;;30.90;55.00;;;;;;5073721;28;20821;-65
2021/09/05 14:51:43;;;;;;;5.30;4.90;;;30.60;54.30;;;;;;5073150;28;20482;-65
2021/09/05 14:54:16;;;;;;;5.33;5.03;;;30.60;55.80;;;;;;5073645;28;20438;-65
2021/09/05 14:56:44;;;;;;;4.83;4.50;;;30.60;53.90;;;;;;5073772;28;20454;-65
2021/09/05 14:59:20;;;;;;;5.97;5.37;;;30.50;55.50;;;;;;5074375;28;20454;-65
2021/09/05 15:01:50;;;;;;;5.77;4.93;;;30.30;55.50;;;;;;5073927;28;20556;-65
2021/09/05 15:04:34;;;;;;;4.97;4.57;;;30.30;55.00;;;;;;5073570;28;20544;-65
2021/09/05 15:12:27;;;;;;;5.27;4.97;;;30.20;55.50;;;;;;5073370;28;20473;-65
2021/09/05 15:14:53;;;;;;;4.63;4.33;;;30.20;56.00;;;;;;5075339;28;20450;-65
2021/09/05 15:17:20;;;;;;;4.53;4.23;;;30.20;56.50;;;;;;5076232;28;20453;-65
2021/09/05 15:19:47;;;;;;;4.83;4.43;;;30.20;54.90;;;;;;5076590;28;20454;-65
2021/09/05 15:22:17;;;;;;;4.87;4.57;;;29.90;54.00;;;;;;5077527;28;20981;-64
2021/09/05 15:24:45;;;;;;;5.20;4.60;;;29.60;53.90;;;;;;5073677;28;20447;-64
2021/09/05 15:27:14;;;;;;;5.10;4.80;;;29.30;54.40;;;;;;5073558;28;20465;-64
2021/09/05 15:29:48;;;;;;;5.60;5.20;;;29.10;54.90;;;;;;5073402;28;20549;-64
2021/09/05 15:38:18;;;;;;;4.90;4.50;;;28.90;58.40;;;;;;5059000;28;20452;-65
2021/09/05 15:49:16;;;;;;;5.03;4.73;;;28.90;57.30;;;;;;5076766;28;20793;-65
2021/09/05 15:51:55;;;;;;;5.70;5.30;;;29.00;57.20;;;;;;5076660;28;20481;-65
2021/09/05 15:54:22;;;;;;;4.80;4.50;;;29.00;57.60;;;;;;5076934;28;20480;-65
2021/09/05 15:56:53;;;;;;;4.50;4.20;;;28.70;56.70;;;;;;5076950;28;20454;-65
2021/09/05 15:59:28;;;;;;;5.00;4.70;;;28.80;55.80;;;;;;5076946;28;20495;-65
2021/09/05 16:02:00;;;;;;;4.53;4.23;;;28.80;56.80;;;;;;5076827;28;20811;-64
2021/09/05 16:04:55;;;;;;;4.97;4.67;;;28.70;56.20;;;;;;5077677;28;20446;-64
2021/09/05 16:18:21;;;;;;;4.63;4.23;;;28.10;57.30;;;;;;5076519;28;20433;-64
2021/09/05 16:20:48;;;;;;;5.23;4.60;;;28.00;57.80;;;;;;5076359;28;20481;-64
2021/09/05 16:23:14;;;;;;;5.77;5.37;;;27.90;57.70;;;;;;5076401;28;20453;-64
2021/09/05 16:25:41;;;;;;;5.70;5.07;;;27.70;58.10;;;;;;5076421;28;20454;-64
2021/09/05 16:28:08;;;;;;;5.40;5.00;;;27.60;58.40;;;;;;5076311;28;20457;-64
2021/09/05 16:30:37;;;;;;;5.03;4.73;;;27.60;58.80;;;;;;5076354;28;20506;-64
2021/09/05 16:33:17;;;;;;;5.27;4.87;;;27.40;58.40;;;;;;5076056;28;20470;-64
2021/09/05 16:36:11;;;;;;;5.60;5.10;;;27.30;59.30;;;;;;5080584;28;20913;-64
2021/09/05 16:41:22;;;;;;;6.10;5.50;;;27.10;59.10;;;;;;5081238;28;20806;-64
2021/09/05 16:43:49;;;;;;;5.27;4.97;;;27.00;59.70;;;;;;5080475;28;20478;-64
2021/09/05 16:46:16;;;;;;;5.03;4.63;;;26.90;59.70;;;;;;5076273;28;20460;-64
2021/09/05 16:48:42;;;;;;;6.50;4.47;;;26.90;60.00;;;;;;5075990;28;20453;-64
2021/09/05 16:51:11;;;;;;;5.17;4.67;;;26.70;59.50;;;;;;5075298;28;20687;-62
2021/09/05 16:53:38;;;;;;;7.10;5.63;;;26.70;61.00;;;;;;5075300;28;20895;-61
2021/09/05 16:56:05;;;;;;;6.53;5.40;;;26.60;62.20;;;;;;5075815;28;20454;-61
2021/09/05 16:58:31;;;;;;;5.20;4.90;;;26.60;62.10;;;;;;5075588;28;20453;-61
2021/09/05 17:00:58;;;;;;;4.47;4.17;;;26.50;62.30;;;;;;5075538;28;20477;-62
2021/09/05 17:03:26;;;;;;;5.70;4.80;;;26.50;63.90;;;;;;5075345;28;20816;-62
2021/09/05 17:05:52;;;;;;;5.20;4.80;;;26.50;64.30;;;;;;5075626;28;20447;-62
2021/09/05 17:08:20;;;;;;;5.33;5.03;;;26.50;63.80;;;;;;5075346;28;20442;-62
2021/09/05 17:10:47;;;;;;;5.33;4.93;;;26.40;64.50;;;;;;5075270;28;20972;-61
2021/09/05 17:13:14;;;;;;;5.73;4.87;;;26.40;64.20;;;;;;5074991;28;21007;-61
2021/09/05 17:15:40;;;;;;;8.20;5.50;;;26.30;64.00;;;;;;5075291;28;20807;-61
2021/09/05 17:18:07;;;;;;;5.60;5.10;;;26.30;63.40;;;;;;5075176;28;20457;-61
2021/09/05 17:20:36;;;;;;;6.73;6.00;;;26.20;63.50;;;;;;5074948;28;20988;-61
2021/09/05 17:23:03;;;;;;;5.80;5.30;;;26.20;64.30;;;;;;5074985;28;20446;-60
2021/09/05 17:25:31;;;;;;;6.17;5.77;;;26.10;64.90;;;;;;5075689;28;20464;-62
2021/09/05 17:27:58;;;;;;;8.90;5.60;;;26.00;64.60;;;;;;5074992;28;20454;-61
2021/09/05 17:30:25;;;;;;;5.07;4.67;;;26.00;65.80;;;;;;5074832;28;20454;-61
2021/09/05 17:32:52;;;;;;;5.10;4.80;;;25.90;67.80;;;;;;5074800;28;20473;-61
2021/09/05 17:35:18;;;;;;;5.67;5.27;;;25.80;66.50;;;;;;5074864;28;20450;-62
2021/09/05 17:37:45;;;;;;;5.77;5.37;;;25.80;69.10;;;;;;5074873;28;20461;-63